sensor_id;sensor_type;location;lat;lon;timestamp;temperature;humidity
24224;DHT22;12359;49.716;9.212;2024-03-02T00:00:25;5.80;34.10
24224;DHT22;12359;49.716;9.212;2024-03-02T00:02:52;5.80;37.70
24224;DHT22;12359;49.716;9.212;2024-03-02T00:05:21;5.90;35.10
24224;DHT22;12359;49.716;9.212;2024-03-02T00:07:55;5.80;29.90
24224;DHT22;12359;49.716;9.212;2024-03-02T00:10:23;5.80;31.60
24224;DHT22;12359;49.716;9.212;2024-03-02T00:12:54;5.80;30.80
24224;DHT22;12359;49.716;9.212;2024-03-02T00:17:56;5.70;34.10
24224;DHT22;12359;49.716;9.212;2024-03-02T00:20:22;5.70;33.60
24224;DHT22;12359;49.716;9.212;2024-03-02T00:22:49;5.70;36.10
24224;DHT22;12359;49.716;9.212;2024-03-02T00:25:16;5.70;31.40
24224;DHT22;12359;49.716;9.212;2024-03-02T00:27:42;5.70;25.00
24224;DHT22;12359;49.716;9.212;2024-03-02T00:30:41;5.60;29.10
24224;DHT22;12359;49.716;9.212;2024-03-02T00:33:09;5.60;33.50
24224;DHT22;12359;49.716;9.212;2024-03-02T00:35:35;5.60;35.00
24224;DHT22;12359;49.716;9.212;2024-03-02T00:38:05;5.60;39.10
24224;DHT22;12359;49.716;9.212;2024-03-02T00:40:34;5.60;37.90
24224;DHT22;12359;49.716;9.212;2024-03-02T00:42:59;5.60;34.40
24224;DHT22;12359;49.716;9.212;2024-03-02T00:45:26;5.60;33.20
24224;DHT22;12359;49.716;9.212;2024-03-02T00:47:52;5.60;32.10
24224;DHT22;12359;49.716;9.212;2024-03-02T00:50:18;5.50;44.70
24224;DHT22;12359;49.716;9.212;2024-03-02T00:52:45;5.50;50.80
24224;DHT22;12359;49.716;9.212;2024-03-02T00:55:14;5.50;51.80
24224;DHT22;12359;49.716;9.212;2024-03-02T00:57:39;5.50;48.50
24224;DHT22;12359;49.716;9.212;2024-03-02T01:00:06;5.50;45.00
24224;DHT22;12359;49.716;9.212;2024-03-02T01:02:35;5.30;34.30
24224;DHT22;12359;49.716;9.212;2024-03-02T01:05:01;5.30;40.80
24224;DHT22;12359;49.716;9.212;2024-03-02T01:07:27;5.20;37.70
24224;DHT22;12359;49.716;9.212;2024-03-02T01:09:52;5.20;39.50
24224;DHT22;12359;49.716;9.212;2024-03-02T01:12:18;5.20;33.00
24224;DHT22;12359;49.716;9.212;2024-03-02T01:14:44;5.20;32.80
24224;DHT22;12359;49.716;9.212;2024-03-02T01:17:09;5.10;31.30
24224;DHT22;12359;49.716;9.212;2024-03-02T01:19:35;5.00;35.60
24224;DHT22;12359;49.716;9.212;2024-03-02T01:22:01;5.00;36.30
24224;DHT22;12359;49.716;9.212;2024-03-02T01:24:27;5.00;37.60
24224;DHT22;12359;49.716;9.212;2024-03-02T01:26:53;4.90;33.30
24224;DHT22;12359;49.716;9.212;2024-03-02T01:29:19;4.90;38.60
24224;DHT22;12359;49.716;9.212;2024-03-02T01:31:45;4.80;37.40
24224;DHT22;12359;49.716;9.212;2024-03-02T01:34:10;4.80;39.50
24224;DHT22;12359;49.716;9.212;2024-03-02T01:36:38;4.80;41.50
24224;DHT22;12359;49.716;9.212;2024-03-02T01:39:03;4.80;42.60
24224;DHT22;12359;49.716;9.212;2024-03-02T01:41:29;4.70;42.10
24224;DHT22;12359;49.716;9.212;2024-03-02T01:43:55;4.70;42.70
24224;DHT22;12359;49.716;9.212;2024-03-02T01:46:21;4.80;46.50
24224;DHT22;12359;49.716;9.212;2024-03-02T01:48:46;4.70;40.40
24224;DHT22;12359;49.716;9.212;2024-03-02T01:51:13;4.70;36.30
24224;DHT22;12359;49.716;9.212;2024-03-02T01:53:38;4.60;43.60
24224;DHT22;12359;49.716;9.212;2024-03-02T01:56:04;4.60;51.50
24224;DHT22;12359;49.716;9.212;2024-03-02T01:58:30;4.60;56.00
24224;DHT22;12359;49.716;9.212;2024-03-02T02:00:56;4.60;54.50
24224;DHT22;12359;49.716;9.212;2024-03-02T02:03:21;4.60;53.60
24224;DHT22;12359;49.716;9.212;2024-03-02T02:05:47;4.60;51.70
24224;DHT22;12359;49.716;9.212;2024-03-02T02:08:13;4.60;54.20
24224;DHT22;12359;49.716;9.212;2024-03-02T02:10:39;4.60;56.60
24224;DHT22;12359;49.716;9.212;2024-03-02T02:13:05;4.60;55.50
24224;DHT22;12359;49.716;9.212;2024-03-02T02:15:31;4.50;50.80
24224;DHT22;12359;49.716;9.212;2024-03-02T02:17:58;4.50;50.00
24224;DHT22;12359;49.716;9.212;2024-03-02T02:20:24;4.50;56.70
24224;DHT22;12359;49.716;9.212;2024-03-02T02:23:03;4.50;54.40
24224;DHT22;12359;49.716;9.212;2024-03-02T02:25:30;4.50;55.20
24224;DHT22;12359;49.716;9.212;2024-03-02T02:27:57;4.50;56.50
24224;DHT22;12359;49.716;9.212;2024-03-02T02:30:25;4.40;55.00
24224;DHT22;12359;49.716;9.212;2024-03-02T02:32:51;4.50;59.80
24224;DHT22;12359;49.716;9.212;2024-03-02T02:35:16;4.50;61.20
24224;DHT22;12359;49.716;9.212;2024-03-02T02:37:43;4.40;56.20
24224;DHT22;12359;49.716;9.212;2024-03-02T02:40:09;4.40;61.40
24224;DHT22;12359;49.716;9.212;2024-03-02T02:42:35;4.40;57.60
24224;DHT22;12359;49.716;9.212;2024-03-02T02:45:01;4.30;64.70
24224;DHT22;12359;49.716;9.212;2024-03-02T02:47:26;4.30;66.80
24224;DHT22;12359;49.716;9.212;2024-03-02T02:49:54;4.30;63.10
24224;DHT22;12359;49.716;9.212;2024-03-02T02:52:19;4.20;66.50
24224;DHT22;12359;49.716;9.212;2024-03-02T02:54:46;4.10;63.70
24224;DHT22;12359;49.716;9.212;2024-03-02T02:57:12;4.10;65.20
24224;DHT22;12359;49.716;9.212;2024-03-02T02:59:38;4.00;65.90
24224;DHT22;12359;49.716;9.212;2024-03-02T03:02:03;3.90;74.80
24224;DHT22;12359;49.716;9.212;2024-03-02T03:04:29;3.90;78.20
24224;DHT22;12359;49.716;9.212;2024-03-02T03:06:55;3.90;89.90
24224;DHT22;12359;49.716;9.212;2024-03-02T03:09:20;4.00;92.30
24224;DHT22;12359;49.716;9.212;2024-03-02T03:11:46;4.10;92.90
24224;DHT22;12359;49.716;9.212;2024-03-02T03:14:12;4.10;91.80
24224;DHT22;12359;49.716;9.212;2024-03-02T03:16:38;4.00;85.90
24224;DHT22;12359;49.716;9.212;2024-03-02T03:19:03;4.00;83.30
24224;DHT22;12359;49.716;9.212;2024-03-02T03:21:29;3.90;81.30
24224;DHT22;12359;49.716;9.212;2024-03-02T03:23:55;4.00;85.30
24224;DHT22;12359;49.716;9.212;2024-03-02T03:26:20;4.00;89.80
24224;DHT22;12359;49.716;9.212;2024-03-02T03:28:46;3.90;87.70
24224;DHT22;12359;49.716;9.212;2024-03-02T03:31:12;3.90;88.60
24224;DHT22;12359;49.716;9.212;2024-03-02T03:33:37;3.90;88.70
24224;DHT22;12359;49.716;9.212;2024-03-02T03:36:03;3.80;89.80
24224;DHT22;12359;49.716;9.212;2024-03-02T03:38:29;3.80;90.00
24224;DHT22;12359;49.716;9.212;2024-03-02T03:40:55;3.80;90.70
24224;DHT22;12359;49.716;9.212;2024-03-02T03:43:21;3.70;91.40
24224;DHT22;12359;49.716;9.212;2024-03-02T03:45:47;3.70;92.60
24224;DHT22;12359;49.716;9.212;2024-03-02T03:48:12;3.70;93.20
24224;DHT22;12359;49.716;9.212;2024-03-02T03:50:38;3.80;92.60
24224;DHT22;12359;49.716;9.212;2024-03-02T03:53:04;3.70;92.10
24224;DHT22;12359;49.716;9.212;2024-03-02T03:55:29;3.70;91.50
24224;DHT22;12359;49.716;9.212;2024-03-02T03:57:55;3.70;91.80
24224;DHT22;12359;49.716;9.212;2024-03-02T04:00:21;3.70;92.90
24224;DHT22;12359;49.716;9.212;2024-03-02T04:02:47;3.70;93.20
24224;DHT22;12359;49.716;9.212;2024-03-02T04:05:13;3.70;93.00
24224;DHT22;12359;49.716;9.212;2024-03-02T04:07:38;3.60;92.00
24224;DHT22;12359;49.716;9.212;2024-03-02T04:10:07;3.60;91.40
24224;DHT22;12359;49.716;9.212;2024-03-02T04:12:34;3.60;91.00
24224;DHT22;12359;49.716;9.212;2024-03-02T04:15:00;3.60;91.80
24224;DHT22;12359;49.716;9.212;2024-03-02T04:17:27;3.60;92.10
24224;DHT22;12359;49.716;9.212;2024-03-02T04:19:52;3.60;92.50
24224;DHT22;12359;49.716;9.212;2024-03-02T04:22:18;3.60;91.00
24224;DHT22;12359;49.716;9.212;2024-03-02T04:24:44;3.60;90.20
24224;DHT22;12359;49.716;9.212;2024-03-02T04:27:09;3.50;89.70
24224;DHT22;12359;49.716;9.212;2024-03-02T04:29:35;3.50;91.30
24224;DHT22;12359;49.716;9.212;2024-03-02T04:32:01;3.50;91.00
24224;DHT22;12359;49.716;9.212;2024-03-02T04:34:26;3.50;91.70
24224;DHT22;12359;49.716;9.212;2024-03-02T04:36:52;3.50;91.80
24224;DHT22;12359;49.716;9.212;2024-03-02T04:39:18;3.40;90.90
24224;DHT22;12359;49.716;9.212;2024-03-02T04:41:44;3.40;90.10
24224;DHT22;12359;49.716;9.212;2024-03-02T04:44:09;3.40;90.50
24224;DHT22;12359;49.716;9.212;2024-03-02T04:46:35;3.30;90.10
24224;DHT22;12359;49.716;9.212;2024-03-02T04:49:01;3.30;90.90
24224;DHT22;12359;49.716;9.212;2024-03-02T04:51:26;3.40;92.30
24224;DHT22;12359;49.716;9.212;2024-03-02T04:53:52;3.40;91.00
24224;DHT22;12359;49.716;9.212;2024-03-02T04:56:18;3.40;90.80
24224;DHT22;12359;49.716;9.212;2024-03-02T04:59:02;3.40;90.40
24224;DHT22;12359;49.716;9.212;2024-03-02T05:01:27;3.30;90.70
24224;DHT22;12359;49.716;9.212;2024-03-02T05:03:53;3.30;92.10
24224;DHT22;12359;49.716;9.212;2024-03-02T05:06:19;3.40;92.30
24224;DHT22;12359;49.716;9.212;2024-03-02T05:08:44;3.40;92.20
24224;DHT22;12359;49.716;9.212;2024-03-02T05:11:10;3.40;91.10
24224;DHT22;12359;49.716;9.212;2024-03-02T05:14:07;3.40;89.10
24224;DHT22;12359;49.716;9.212;2024-03-02T05:16:34;3.40;90.00
24224;DHT22;12359;49.716;9.212;2024-03-02T05:19:00;3.50;92.50
24224;DHT22;12359;49.716;9.212;2024-03-02T05:21:25;3.50;92.10
24224;DHT22;12359;49.716;9.212;2024-03-02T05:23:51;3.50;91.50
24224;DHT22;12359;49.716;9.212;2024-03-02T05:26:17;3.50;91.00
24224;DHT22;12359;49.716;9.212;2024-03-02T05:28:43;3.60;91.00
24224;DHT22;12359;49.716;9.212;2024-03-02T05:31:11;3.60;90.00
24224;DHT22;12359;49.716;9.212;2024-03-02T05:33:40;3.60;86.00
24224;DHT22;12359;49.716;9.212;2024-03-02T05:36:06;3.60;87.00
24224;DHT22;12359;49.716;9.212;2024-03-02T05:38:34;3.60;86.20
24224;DHT22;12359;49.716;9.212;2024-03-02T05:41:00;3.60;84.00
24224;DHT22;12359;49.716;9.212;2024-03-02T05:43:26;3.60;83.80
24224;DHT22;12359;49.716;9.212;2024-03-02T05:45:51;3.60;83.30
24224;DHT22;12359;49.716;9.212;2024-03-02T05:48:17;3.60;83.10
24224;DHT22;12359;49.716;9.212;2024-03-02T05:50:43;3.60;82.70
24224;DHT22;12359;49.716;9.212;2024-03-02T05:53:08;3.60;78.00
24224;DHT22;12359;49.716;9.212;2024-03-02T05:55:34;3.60;78.40
24224;DHT22;12359;49.716;9.212;2024-03-02T05:58:00;3.60;76.90
24224;DHT22;12359;49.716;9.212;2024-03-02T06:00:31;3.60;76.80
24224;DHT22;12359;49.716;9.212;2024-03-02T06:02:57;3.50;77.70
24224;DHT22;12359;49.716;9.212;2024-03-02T06:05:23;3.50;78.40
24224;DHT22;12359;49.716;9.212;2024-03-02T06:07:50;3.50;80.10
24224;DHT22;12359;49.716;9.212;2024-03-02T06:10:16;3.50;77.00
24224;DHT22;12359;49.716;9.212;2024-03-02T06:12:42;3.60;79.30
24224;DHT22;12359;49.716;9.212;2024-03-02T06:15:08;3.60;78.80
24224;DHT22;12359;49.716;9.212;2024-03-02T06:17:35;3.60;74.00
24224;DHT22;12359;49.716;9.212;2024-03-02T06:20:01;3.60;76.90
24224;DHT22;12359;49.716;9.212;2024-03-02T06:22:26;3.70;75.40
24224;DHT22;12359;49.716;9.212;2024-03-02T06:24:52;3.80;78.10
24224;DHT22;12359;49.716;9.212;2024-03-02T06:27:18;3.80;78.20
24224;DHT22;12359;49.716;9.212;2024-03-02T06:29:44;3.90;79.70
24224;DHT22;12359;49.716;9.212;2024-03-02T06:32:09;3.90;81.30
24224;DHT22;12359;49.716;9.212;2024-03-02T06:34:35;4.00;80.80
24224;DHT22;12359;49.716;9.212;2024-03-02T06:37:01;4.00;79.90
24224;DHT22;12359;49.716;9.212;2024-03-02T06:39:26;4.10;80.80
24224;DHT22;12359;49.716;9.212;2024-03-02T06:41:52;4.20;77.60
24224;DHT22;12359;49.716;9.212;2024-03-02T06:44:18;4.20;78.20
24224;DHT22;12359;49.716;9.212;2024-03-02T06:46:43;4.20;69.70
24224;DHT22;12359;49.716;9.212;2024-03-02T06:49:09;4.20;65.70
24224;DHT22;12359;49.716;9.212;2024-03-02T06:51:37;4.20;62.50
24224;DHT22;12359;49.716;9.212;2024-03-02T06:54:03;4.10;49.90
24224;DHT22;12359;49.716;9.212;2024-03-02T06:56:29;4.00;52.60
24224;DHT22;12359;49.716;9.212;2024-03-02T06:58:56;4.10;65.10
24224;DHT22;12359;49.716;9.212;2024-03-02T07:01:21;4.30;68.20
24224;DHT22;12359;49.716;9.212;2024-03-02T07:03:47;4.40;78.00
24224;DHT22;12359;49.716;9.212;2024-03-02T07:06:13;4.50;83.60
24224;DHT22;12359;49.716;9.212;2024-03-02T07:08:38;4.50;82.60
24224;DHT22;12359;49.716;9.212;2024-03-02T07:11:04;4.60;76.00
24224;DHT22;12359;49.716;9.212;2024-03-02T07:13:30;4.60;73.00
24224;DHT22;12359;49.716;9.212;2024-03-02T07:15:55;4.60;75.10
24224;DHT22;12359;49.716;9.212;2024-03-02T07:18:36;4.70;76.70
24224;DHT22;12359;49.716;9.212;2024-03-02T07:21:10;4.70;74.30
24224;DHT22;12359;49.716;9.212;2024-03-02T07:23:36;4.80;74.30
24224;DHT22;12359;49.716;9.212;2024-03-02T07:26:02;4.80;72.80
24224;DHT22;12359;49.716;9.212;2024-03-02T07:28:28;4.90;71.00
24224;DHT22;12359;49.716;9.212;2024-03-02T07:30:59;4.80;56.90
24224;DHT22;12359;49.716;9.212;2024-03-02T07:33:25;4.80;55.10
24224;DHT22;12359;49.716;9.212;2024-03-02T07:35:51;5.00;60.00
24224;DHT22;12359;49.716;9.212;2024-03-02T07:38:17;5.20;54.30
24224;DHT22;12359;49.716;9.212;2024-03-02T07:40:43;5.50;57.10
24224;DHT22;12359;49.716;9.212;2024-03-02T07:43:09;5.70;29.70
24224;DHT22;12359;49.716;9.212;2024-03-02T07:45:35;5.80;27.60
24224;DHT22;12359;49.716;9.212;2024-03-02T07:48:03;6.00;16.30
24224;DHT22;12359;49.716;9.212;2024-03-02T07:50:29;6.00;1.00
24224;DHT22;12359;49.716;9.212;2024-03-02T07:53:01;6.20;1.00
24224;DHT22;12359;49.716;9.212;2024-03-02T07:55:26;6.20;1.00
24224;DHT22;12359;49.716;9.212;2024-03-02T07:57:52;6.30;4.40
24224;DHT22;12359;49.716;9.212;2024-03-02T08:00:18;6.40;1.00
24224;DHT22;12359;49.716;9.212;2024-03-02T08:02:44;6.60;1.00
24224;DHT22;12359;49.716;9.212;2024-03-02T08:05:10;6.90;1.00
24224;DHT22;12359;49.716;9.212;2024-03-02T08:07:36;7.10;1.00
24224;DHT22;12359;49.716;9.212;2024-03-02T08:10:01;7.30;1.00
24224;DHT22;12359;49.716;9.212;2024-03-02T08:12:27;7.70;1.00
24224;DHT22;12359;49.716;9.212;2024-03-02T08:14:53;7.90;1.00
24224;DHT22;12359;49.716;9.212;2024-03-02T08:17:18;8.00;99.90
24224;DHT22;12359;49.716;9.212;2024-03-02T08:19:44;7.80;1.00
24224;DHT22;12359;49.716;9.212;2024-03-02T08:22:10;7.70;1.00
24224;DHT22;12359;49.716;9.212;2024-03-02T08:24:36;7.50;1.00
24224;DHT22;12359;49.716;9.212;2024-03-02T08:27:02;7.40;1.00
24224;DHT22;12359;49.716;9.212;2024-03-02T08:29:28;7.20;1.00
24224;DHT22;12359;49.716;9.212;2024-03-02T08:31:54;7.10;1.00
24224;DHT22;12359;49.716;9.212;2024-03-02T08:34:20;6.90;1.00
24224;DHT22;12359;49.716;9.212;2024-03-02T08:36:46;6.90;1.10
24224;DHT22;12359;49.716;9.212;2024-03-02T08:39:12;6.80;1.00
24224;DHT22;12359;49.716;9.212;2024-03-02T08:41:42;6.70;10.30
24224;DHT22;12359;49.716;9.212;2024-03-02T08:44:08;6.70;14.00
24224;DHT22;12359;49.716;9.212;2024-03-02T08:46:34;6.70;16.50
24224;DHT22;12359;49.716;9.212;2024-03-02T08:49:00;6.80;18.40
24224;DHT22;12359;49.716;9.212;2024-03-02T08:51:26;6.90;5.00
24224;DHT22;12359;49.716;9.212;2024-03-02T08:53:51;7.10;7.00
24224;DHT22;12359;49.716;9.212;2024-03-02T08:56:17;7.10;1.00
24224;DHT22;12359;49.716;9.212;2024-03-02T08:58:43;7.00;1.00
24224;DHT22;12359;49.716;9.212;2024-03-02T09:01:10;7.00;2.20
24224;DHT22;12359;49.716;9.212;2024-03-02T09:03:36;7.20;1.00
24224;DHT22;12359;49.716;9.212;2024-03-02T09:06:03;7.70;1.00
24224;DHT22;12359;49.716;9.212;2024-03-02T09:08:28;8.30;1.00
24224;DHT22;12359;49.716;9.212;2024-03-02T09:10:55;8.60;99.90
24224;DHT22;12359;49.716;9.212;2024-03-02T09:13:21;9.50;99.90
24224;DHT22;12359;49.716;9.212;2024-03-02T09:15:47;10.70;1.00
24224;DHT22;12359;49.716;9.212;2024-03-02T09:18:13;11.70;74.90
24224;DHT22;12359;49.716;9.212;2024-03-02T09:20:39;11.40;99.90
24224;DHT22;12359;49.716;9.212;2024-03-02T09:23:05;12.00;1.00
24224;DHT22;12359;49.716;9.212;2024-03-02T09:25:30;12.70;99.90
24224;DHT22;12359;49.716;9.212;2024-03-02T09:27:56;12.90;1.00
24224;DHT22;12359;49.716;9.212;2024-03-02T09:30:22;12.80;45.30
24224;DHT22;12359;49.716;9.212;2024-03-02T09:32:47;13.20;99.90
24224;DHT22;12359;49.716;9.212;2024-03-02T09:35:13;13.30;1.00
24224;DHT22;12359;49.716;9.212;2024-03-02T09:37:39;13.30;99.90
24224;DHT22;12359;49.716;9.212;2024-03-02T09:40:05;13.30;1.00
24224;DHT22;12359;49.716;9.212;2024-03-02T09:42:32;13.30;30.30
24224;DHT22;12359;49.716;9.212;2024-03-02T09:44:58;13.40;1.00
24224;DHT22;12359;49.716;9.212;2024-03-02T09:47:24;13.30;99.90
24224;DHT22;12359;49.716;9.212;2024-03-02T09:49:49;13.20;77.60
24224;DHT22;12359;49.716;9.212;2024-03-02T09:52:15;13.50;1.00
24224;DHT22;12359;49.716;9.212;2024-03-02T09:54:41;13.70;99.90
24224;DHT22;12359;49.716;9.212;2024-03-02T09:57:07;13.80;99.90
24224;DHT22;12359;49.716;9.212;2024-03-02T09:59:33;13.90;99.90
24224;DHT22;12359;49.716;9.212;2024-03-02T10:02:00;13.80;19.30
24224;DHT22;12359;49.716;9.212;2024-03-02T10:04:26;14.40;1.00
24224;DHT22;12359;49.716;9.212;2024-03-02T10:07:16;14.40;1.00
24224;DHT22;12359;49.716;9.212;2024-03-02T10:09:43;14.30;1.00
24224;DHT22;12359;49.716;9.212;2024-03-02T10:12:11;15.00;99.90
24224;DHT22;12359;49.716;9.212;2024-03-02T10:14:38;15.30;45.30
24224;DHT22;12359;49.716;9.212;2024-03-02T10:17:22;15.30;1.00
24224;DHT22;12359;49.716;9.212;2024-03-02T10:19:48;15.50;1.00
24224;DHT22;12359;49.716;9.212;2024-03-02T10:22:13;14.90;1.00
24224;DHT22;12359;49.716;9.212;2024-03-02T10:24:43;15.10;1.00
24224;DHT22;12359;49.716;9.212;2024-03-02T10:27:26;15.00;1.00
24224;DHT22;12359;49.716;9.212;2024-03-02T10:29:52;15.40;48.80
24224;DHT22;12359;49.716;9.212;2024-03-02T10:32:22;15.60;1.00
24224;DHT22;12359;49.716;9.212;2024-03-02T10:34:48;15.80;1.00
24224;DHT22;12359;49.716;9.212;2024-03-02T10:37:14;15.80;1.00
24224;DHT22;12359;49.716;9.212;2024-03-02T10:39:40;16.20;1.00
24224;DHT22;12359;49.716;9.212;2024-03-02T10:42:07;16.00;99.90
24224;DHT22;12359;49.716;9.212;2024-03-02T10:44:33;15.70;99.90
24224;DHT22;12359;49.716;9.212;2024-03-02T10:47:04;15.90;1.00
24224;DHT22;12359;49.716;9.212;2024-03-02T10:49:31;16.00;99.90
24224;DHT22;12359;49.716;9.212;2024-03-02T10:51:58;15.80;99.90
24224;DHT22;12359;49.716;9.212;2024-03-02T10:54:24;16.10;99.90
24224;DHT22;12359;49.716;9.212;2024-03-02T10:56:53;16.50;99.90
24224;DHT22;12359;49.716;9.212;2024-03-02T11:01:56;16.40;99.90
24224;DHT22;12359;49.716;9.212;2024-03-02T11:04:27;16.70;99.90
24224;DHT22;12359;49.716;9.212;2024-03-02T11:07:14;16.40;99.90
24224;DHT22;12359;49.716;9.212;2024-03-02T11:09:47;16.60;99.90
24224;DHT22;12359;49.716;9.212;2024-03-02T11:12:19;16.80;99.90
24224;DHT22;12359;49.716;9.212;2024-03-02T11:14:51;17.20;99.90
24224;DHT22;12359;49.716;9.212;2024-03-02T11:17:19;16.70;99.90
24224;DHT22;12359;49.716;9.212;2024-03-02T11:19:46;17.10;99.90
24224;DHT22;12359;49.716;9.212;2024-03-02T11:22:12;17.40;99.90
24224;DHT22;12359;49.716;9.212;2024-03-02T11:24:38;17.30;99.90
24224;DHT22;12359;49.716;9.212;2024-03-02T11:27:05;17.10;99.90
24224;DHT22;12359;49.716;9.212;2024-03-02T11:32:05;17.60;99.90
24224;DHT22;12359;49.716;9.212;2024-03-02T11:34:32;17.80;95.20
24224;DHT22;12359;49.716;9.212;2024-03-02T11:36:59;17.20;48.80
24224;DHT22;12359;49.716;9.212;2024-03-02T11:39:27;17.80;59.80
24224;DHT22;12359;49.716;9.212;2024-03-02T11:41:53;18.00;43.70
24224;DHT22;12359;49.716;9.212;2024-03-02T11:44:18;18.00;22.50
24224;DHT22;12359;49.716;9.212;2024-03-02T11:47:06;18.40;17.30
24224;DHT22;12359;49.716;9.212;2024-03-02T11:49:45;18.20;7.90
24224;DHT22;12359;49.716;9.212;2024-03-02T11:52:13;18.30;12.70
24224;DHT22;12359;49.716;9.212;2024-03-02T11:54:40;18.80;4.50
24224;DHT22;12359;49.716;9.212;2024-03-02T11:57:12;18.50;1.00
24224;DHT22;12359;49.716;9.212;2024-03-02T11:59:38;18.80;1.00
24224;DHT22;12359;49.716;9.212;2024-03-02T12:02:03;18.70;1.00
24224;DHT22;12359;49.716;9.212;2024-03-02T12:04:30;18.40;1.00
24224;DHT22;12359;49.716;9.212;2024-03-02T12:06:58;18.80;1.00
24224;DHT22;12359;49.716;9.212;2024-03-02T12:09:28;19.10;1.00
24224;DHT22;12359;49.716;9.212;2024-03-02T12:14:29;18.60;1.00
24224;DHT22;12359;49.716;9.212;2024-03-02T12:16:55;18.80;1.00
24224;DHT22;12359;49.716;9.212;2024-03-02T12:19:21;18.70;1.00
24224;DHT22;12359;49.716;9.212;2024-03-02T12:21:47;18.70;1.00
24224;DHT22;12359;49.716;9.212;2024-03-02T12:24:13;18.30;1.00
24224;DHT22;12359;49.716;9.212;2024-03-02T12:26:39;18.30;1.00
24224;DHT22;12359;49.716;9.212;2024-03-02T12:29:05;17.90;1.00
24224;DHT22;12359;49.716;9.212;2024-03-02T12:31:31;17.60;1.00
24224;DHT22;12359;49.716;9.212;2024-03-02T12:33:58;17.60;1.00
24224;DHT22;12359;49.716;9.212;2024-03-02T12:36:24;17.80;1.00
24224;DHT22;12359;49.716;9.212;2024-03-02T12:38:53;18.10;1.00
24224;DHT22;12359;49.716;9.212;2024-03-02T12:41:18;18.00;1.00
24224;DHT22;12359;49.716;9.212;2024-03-02T12:43:44;17.80;1.00
24224;DHT22;12359;49.716;9.212;2024-03-02T12:46:11;17.80;1.00
24224;DHT22;12359;49.716;9.212;2024-03-02T12:48:37;17.70;1.00
24224;DHT22;12359;49.716;9.212;2024-03-02T12:51:04;17.80;1.00
24224;DHT22;12359;49.716;9.212;2024-03-02T12:53:31;18.20;1.00
24224;DHT22;12359;49.716;9.212;2024-03-02T12:55:56;18.40;1.00
24224;DHT22;12359;49.716;9.212;2024-03-02T12:58:22;18.50;1.00
24224;DHT22;12359;49.716;9.212;2024-03-02T13:00:48;18.30;1.00
24224;DHT22;12359;49.716;9.212;2024-03-02T13:03:14;17.80;1.00
24224;DHT22;12359;49.716;9.212;2024-03-02T13:05:41;17.60;1.00
24224;DHT22;12359;49.716;9.212;2024-03-02T13:08:06;17.80;1.00
24224;DHT22;12359;49.716;9.212;2024-03-02T13:10:33;17.80;1.00
24224;DHT22;12359;49.716;9.212;2024-03-02T13:12:59;17.50;1.00
24224;DHT22;12359;49.716;9.212;2024-03-02T13:15:28;17.30;1.00
24224;DHT22;12359;49.716;9.212;2024-03-02T13:17:58;17.50;1.00
24224;DHT22;12359;49.716;9.212;2024-03-02T13:20:30;17.70;1.00
24224;DHT22;12359;49.716;9.212;2024-03-02T13:22:57;17.70;1.00
24224;DHT22;12359;49.716;9.212;2024-03-02T13:25:23;17.30;1.00
24224;DHT22;12359;49.716;9.212;2024-03-02T13:27:48;17.40;1.00
24224;DHT22;12359;49.716;9.212;2024-03-02T13:30:14;17.40;1.00
24224;DHT22;12359;49.716;9.212;2024-03-02T13:32:40;17.40;1.00
24224;DHT22;12359;49.716;9.212;2024-03-02T13:35:06;17.30;1.00
24224;DHT22;12359;49.716;9.212;2024-03-02T13:37:32;17.40;1.00
24224;DHT22;12359;49.716;9.212;2024-03-02T13:39:58;17.30;1.00
24224;DHT22;12359;49.716;9.212;2024-03-02T13:42:23;17.30;1.00
24224;DHT22;12359;49.716;9.212;2024-03-02T13:44:49;17.10;1.00
24224;DHT22;12359;49.716;9.212;2024-03-02T13:47:16;17.10;1.00
24224;DHT22;12359;49.716;9.212;2024-03-02T13:49:42;17.10;1.00
24224;DHT22;12359;49.716;9.212;2024-03-02T13:52:14;16.80;1.00
24224;DHT22;12359;49.716;9.212;2024-03-02T13:54:41;16.90;1.00
24224;DHT22;12359;49.716;9.212;2024-03-02T13:57:08;16.80;1.00
24224;DHT22;12359;49.716;9.212;2024-03-02T13:59:35;16.80;1.00
24224;DHT22;12359;49.716;9.212;2024-03-02T14:02:01;16.80;1.00
24224;DHT22;12359;49.716;9.212;2024-03-02T14:04:33;16.80;1.00
24224;DHT22;12359;49.716;9.212;2024-03-02T14:06:59;16.80;1.00
24224;DHT22;12359;49.716;9.212;2024-03-02T14:09:25;16.90;1.00
24224;DHT22;12359;49.716;9.212;2024-03-02T14:11:51;17.00;1.00
24224;DHT22;12359;49.716;9.212;2024-03-02T14:14:17;17.00;1.00
24224;DHT22;12359;49.716;9.212;2024-03-02T14:16:43;16.90;1.00
24224;DHT22;12359;49.716;9.212;2024-03-02T14:19:10;16.90;1.00
24224;DHT22;12359;49.716;9.212;2024-03-02T14:21:37;16.80;1.00
24224;DHT22;12359;49.716;9.212;2024-03-02T14:24:03;16.70;1.00
24224;DHT22;12359;49.716;9.212;2024-03-02T14:26:29;16.60;1.00
24224;DHT22;12359;49.716;9.212;2024-03-02T14:28:55;16.50;1.00
24224;DHT22;12359;49.716;9.212;2024-03-02T14:31:21;16.60;1.00
24224;DHT22;12359;49.716;9.212;2024-03-02T14:33:46;16.60;1.00
24224;DHT22;12359;49.716;9.212;2024-03-02T14:36:12;16.60;1.00
24224;DHT22;12359;49.716;9.212;2024-03-02T14:38:38;16.70;1.00
24224;DHT22;12359;49.716;9.212;2024-03-02T14:41:05;16.70;1.00
24224;DHT22;12359;49.716;9.212;2024-03-02T14:43:30;16.80;1.00
24224;DHT22;12359;49.716;9.212;2024-03-02T14:45:56;16.80;1.00
24224;DHT22;12359;49.716;9.212;2024-03-02T14:48:24;16.70;1.00
24224;DHT22;12359;49.716;9.212;2024-03-02T14:50:50;16.60;1.00
24224;DHT22;12359;49.716;9.212;2024-03-02T14:53:16;16.70;1.00
24224;DHT22;12359;49.716;9.212;2024-03-02T14:55:42;16.60;1.00
24224;DHT22;12359;49.716;9.212;2024-03-02T14:58:08;16.60;1.00
24224;DHT22;12359;49.716;9.212;2024-03-02T15:00:33;16.70;1.00
24224;DHT22;12359;49.716;9.212;2024-03-02T15:02:59;16.60;1.00
24224;DHT22;12359;49.716;9.212;2024-03-02T15:05:25;16.50;1.00
24224;DHT22;12359;49.716;9.212;2024-03-02T15:07:52;16.50;1.00
24224;DHT22;12359;49.716;9.212;2024-03-02T15:10:17;16.50;1.00
24224;DHT22;12359;49.716;9.212;2024-03-02T15:12:44;16.50;1.00
24224;DHT22;12359;49.716;9.212;2024-03-02T15:15:09;16.40;1.00
24224;DHT22;12359;49.716;9.212;2024-03-02T15:17:37;16.40;1.00
24224;DHT22;12359;49.716;9.212;2024-03-02T15:20:03;16.30;1.00
24224;DHT22;12359;49.716;9.212;2024-03-02T15:22:30;16.20;1.00
24224;DHT22;12359;49.716;9.212;2024-03-02T15:24:55;16.20;1.00
24224;DHT22;12359;49.716;9.212;2024-03-02T15:27:21;16.20;1.00
24224;DHT22;12359;49.716;9.212;2024-03-02T15:29:47;16.30;1.00
24224;DHT22;12359;49.716;9.212;2024-03-02T15:32:15;16.20;1.00
24224;DHT22;12359;49.716;9.212;2024-03-02T15:34:41;16.20;1.00
24224;DHT22;12359;49.716;9.212;2024-03-02T15:37:08;16.20;1.00
24224;DHT22;12359;49.716;9.212;2024-03-02T15:39:34;16.20;1.00
24224;DHT22;12359;49.716;9.212;2024-03-02T15:41:59;16.20;1.00
24224;DHT22;12359;49.716;9.212;2024-03-02T15:44:25;16.20;1.00
24224;DHT22;12359;49.716;9.212;2024-03-02T15:46:51;16.10;1.00
24224;DHT22;12359;49.716;9.212;2024-03-02T15:49:17;16.10;1.00
24224;DHT22;12359;49.716;9.212;2024-03-02T15:51:43;16.10;1.00